sensor_id;sensor_type;location;lat;lon;timestamp;temperature;humidity
55642;DHT22;41509;53.108;6.100;2024-03-29T00:01:24;9.00;99.90
55642;DHT22;41509;53.108;6.100;2024-03-29T00:03:50;9.10;99.90
55642;DHT22;41509;53.108;6.100;2024-03-29T00:06:16;9.00;99.90
55642;DHT22;41509;53.108;6.100;2024-03-29T00:08:43;9.00;99.90
55642;DHT22;41509;53.108;6.100;2024-03-29T00:11:08;8.90;99.90
55642;DHT22;41509;53.108;6.100;2024-03-29T00:13:34;8.90;99.90
55642;DHT22;41509;53.108;6.100;2024-03-29T00:16:00;8.90;99.90
55642;DHT22;41509;53.108;6.100;2024-03-29T00:18:29;8.80;99.90
55642;DHT22;41509;53.108;6.100;2024-03-29T00:20:55;8.80;99.90
55642;DHT22;41509;53.108;6.100;2024-03-29T00:23:20;8.80;99.90
55642;DHT22;41509;53.108;6.100;2024-03-29T00:25:46;8.80;99.90
55642;DHT22;41509;53.108;6.100;2024-03-29T00:28:11;8.80;99.90
55642;DHT22;41509;53.108;6.100;2024-03-29T00:30:37;8.80;99.90
55642;DHT22;41509;53.108;6.100;2024-03-29T00:33:08;8.80;99.90
55642;DHT22;41509;53.108;6.100;2024-03-29T00:35:34;8.80;99.90
55642;DHT22;41509;53.108;6.100;2024-03-29T00:38:00;8.80;99.90
55642;DHT22;41509;53.108;6.100;2024-03-29T00:40:25;8.80;99.90
55642;DHT22;41509;53.108;6.100;2024-03-29T00:42:53;8.70;99.90
55642;DHT22;41509;53.108;6.100;2024-03-29T00:45:19;8.70;99.90
55642;DHT22;41509;53.108;6.100;2024-03-29T00:47:47;8.70;99.90
55642;DHT22;41509;53.108;6.100;2024-03-29T00:50:13;8.70;99.90
55642;DHT22;41509;53.108;6.100;2024-03-29T00:52:38;8.80;99.90
55642;DHT22;41509;53.108;6.100;2024-03-29T00:55:07;8.80;99.90
55642;DHT22;41509;53.108;6.100;2024-03-29T00:57:32;8.80;99.90
55642;DHT22;41509;53.108;6.100;2024-03-29T00:59:58;8.90;99.90
55642;DHT22;41509;53.108;6.100;2024-03-29T01:02:24;8.90;99.90
55642;DHT22;41509;53.108;6.100;2024-03-29T01:04:50;8.90;99.90
55642;DHT22;41509;53.108;6.100;2024-03-29T01:07:15;8.90;99.90
55642;DHT22;41509;53.108;6.100;2024-03-29T01:09:43;8.90;99.90
55642;DHT22;41509;53.108;6.100;2024-03-29T01:12:09;8.90;99.90
55642;DHT22;41509;53.108;6.100;2024-03-29T01:14:34;8.90;99.90
55642;DHT22;41509;53.108;6.100;2024-03-29T01:17:00;8.90;99.90
55642;DHT22;41509;53.108;6.100;2024-03-29T01:19:27;8.90;99.90
55642;DHT22;41509;53.108;6.100;2024-03-29T01:21:52;8.90;99.90
55642;DHT22;41509;53.108;6.100;2024-03-29T01:24:18;8.90;99.90
55642;DHT22;41509;53.108;6.100;2024-03-29T01:26:44;8.90;99.90
55642;DHT22;41509;53.108;6.100;2024-03-29T01:29:10;8.90;99.90
55642;DHT22;41509;53.108;6.100;2024-03-29T01:31:36;8.80;99.90
55642;DHT22;41509;53.108;6.100;2024-03-29T01:34:02;8.80;99.90
55642;DHT22;41509;53.108;6.100;2024-03-29T01:36:28;8.80;99.90
55642;DHT22;41509;53.108;6.100;2024-03-29T01:38:54;8.80;99.90
55642;DHT22;41509;53.108;6.100;2024-03-29T01:41:23;8.80;99.90
55642;DHT22;41509;53.108;6.100;2024-03-29T01:43:53;8.80;99.90
55642;DHT22;41509;53.108;6.100;2024-03-29T01:46:23;8.70;99.90
55642;DHT22;41509;53.108;6.100;2024-03-29T01:48:52;8.60;99.90
55642;DHT22;41509;53.108;6.100;2024-03-29T01:51:19;8.60;99.90
55642;DHT22;41509;53.108;6.100;2024-03-29T01:53:46;8.60;99.90
55642;DHT22;41509;53.108;6.100;2024-03-29T01:56:12;8.40;99.90
55642;DHT22;41509;53.108;6.100;2024-03-29T01:58:39;8.50;99.90
55642;DHT22;41509;53.108;6.100;2024-03-29T02:01:05;8.50;99.90
55642;DHT22;41509;53.108;6.100;2024-03-29T02:03:32;8.50;99.90
55642;DHT22;41509;53.108;6.100;2024-03-29T02:05:58;8.40;99.90
55642;DHT22;41509;53.108;6.100;2024-03-29T02:08:25;8.40;99.90
55642;DHT22;41509;53.108;6.100;2024-03-29T02:10:51;8.40;99.90
55642;DHT22;41509;53.108;6.100;2024-03-29T02:13:17;8.30;99.90
55642;DHT22;41509;53.108;6.100;2024-03-29T02:15:42;8.20;99.90
55642;DHT22;41509;53.108;6.100;2024-03-29T02:18:08;8.30;99.90
55642;DHT22;41509;53.108;6.100;2024-03-29T02:20:34;8.20;99.90
55642;DHT22;41509;53.108;6.100;2024-03-29T02:23:18;8.20;99.90
55642;DHT22;41509;53.108;6.100;2024-03-29T02:25:44;8.20;99.90
55642;DHT22;41509;53.108;6.100;2024-03-29T02:28:11;8.20;99.90
55642;DHT22;41509;53.108;6.100;2024-03-29T02:30:39;8.20;99.90
55642;DHT22;41509;53.108;6.100;2024-03-29T02:33:05;8.20;99.90
55642;DHT22;41509;53.108;6.100;2024-03-29T02:35:33;8.20;99.90
55642;DHT22;41509;53.108;6.100;2024-03-29T02:37:58;8.20;99.90
55642;DHT22;41509;53.108;6.100;2024-03-29T02:40:26;8.20;99.90
55642;DHT22;41509;53.108;6.100;2024-03-29T02:42:52;8.20;99.90
55642;DHT22;41509;53.108;6.100;2024-03-29T02:45:18;8.20;99.90
55642;DHT22;41509;53.108;6.100;2024-03-29T02:47:49;8.20;99.90
55642;DHT22;41509;53.108;6.100;2024-03-29T02:50:15;8.10;99.90
55642;DHT22;41509;53.108;6.100;2024-03-29T02:52:41;8.10;99.90
55642;DHT22;41509;53.108;6.100;2024-03-29T02:55:08;8.10;99.90
55642;DHT22;41509;53.108;6.100;2024-03-29T02:57:36;8.10;99.90
55642;DHT22;41509;53.108;6.100;2024-03-29T03:00:02;8.10;99.90
55642;DHT22;41509;53.108;6.100;2024-03-29T03:02:28;8.00;99.90
55642;DHT22;41509;53.108;6.100;2024-03-29T03:04:54;8.10;99.90
55642;DHT22;41509;53.108;6.100;2024-03-29T03:07:20;8.00;99.90
55642;DHT22;41509;53.108;6.100;2024-03-29T03:10:04;8.00;99.90
55642;DHT22;41509;53.108;6.100;2024-03-29T03:12:48;8.00;99.90
55642;DHT22;41509;53.108;6.100;2024-03-29T03:15:14;8.00;99.90
55642;DHT22;41509;53.108;6.100;2024-03-29T03:17:40;8.00;99.90
55642;DHT22;41509;53.108;6.100;2024-03-29T03:20:06;7.90;99.90
55642;DHT22;41509;53.108;6.100;2024-03-29T03:22:32;7.90;99.90
55642;DHT22;41509;53.108;6.100;2024-03-29T03:24:58;7.90;99.90
55642;DHT22;41509;53.108;6.100;2024-03-29T03:27:25;8.00;99.90
55642;DHT22;41509;53.108;6.100;2024-03-29T03:29:51;8.00;99.90
55642;DHT22;41509;53.108;6.100;2024-03-29T03:32:16;8.00;99.90
55642;DHT22;41509;53.108;6.100;2024-03-29T03:34:42;8.00;99.90
55642;DHT22;41509;53.108;6.100;2024-03-29T03:37:08;8.00;99.90
55642;DHT22;41509;53.108;6.100;2024-03-29T03:39:37;8.10;99.90
55642;DHT22;41509;53.108;6.100;2024-03-29T03:42:03;8.10;99.90
55642;DHT22;41509;53.108;6.100;2024-03-29T03:44:28;8.10;99.90
55642;DHT22;41509;53.108;6.100;2024-03-29T03:46:55;8.00;99.90
55642;DHT22;41509;53.108;6.100;2024-03-29T03:49:20;8.00;99.90
55642;DHT22;41509;53.108;6.100;2024-03-29T03:51:46;8.00;99.90
55642;DHT22;41509;53.108;6.100;2024-03-29T03:54:12;8.10;99.90
55642;DHT22;41509;53.108;6.100;2024-03-29T03:56:37;8.00;99.90
55642;DHT22;41509;53.108;6.100;2024-03-29T03:59:06;8.00;99.90
55642;DHT22;41509;53.108;6.100;2024-03-29T04:01:36;8.10;99.90
55642;DHT22;41509;53.108;6.100;2024-03-29T04:04:02;8.10;99.90
55642;DHT22;41509;53.108;6.100;2024-03-29T04:06:27;8.10;99.90
55642;DHT22;41509;53.108;6.100;2024-03-29T04:08:53;8.10;99.90
55642;DHT22;41509;53.108;6.100;2024-03-29T04:11:19;8.10;99.90
55642;DHT22;41509;53.108;6.100;2024-03-29T04:13:45;8.10;99.90
55642;DHT22;41509;53.108;6.100;2024-03-29T04:16:11;8.20;99.90
55642;DHT22;41509;53.108;6.100;2024-03-29T04:18:37;8.10;99.90
55642;DHT22;41509;53.108;6.100;2024-03-29T04:21:03;8.10;99.90
55642;DHT22;41509;53.108;6.100;2024-03-29T04:23:29;8.10;99.90
55642;DHT22;41509;53.108;6.100;2024-03-29T04:25:59;8.00;99.90
55642;DHT22;41509;53.108;6.100;2024-03-29T04:28:25;8.10;99.90
55642;DHT22;41509;53.108;6.100;2024-03-29T04:30:55;8.10;99.90
55642;DHT22;41509;53.108;6.100;2024-03-29T04:33:21;8.10;99.90
55642;DHT22;41509;53.108;6.100;2024-03-29T04:35:53;8.10;99.90
55642;DHT22;41509;53.108;6.100;2024-03-29T04:38:19;8.10;99.90
55642;DHT22;41509;53.108;6.100;2024-03-29T04:40:45;8.10;99.90
55642;DHT22;41509;53.108;6.100;2024-03-29T04:43:12;8.10;99.90
55642;DHT22;41509;53.108;6.100;2024-03-29T04:45:38;8.20;99.90
55642;DHT22;41509;53.108;6.100;2024-03-29T04:48:04;8.10;99.90
55642;DHT22;41509;53.108;6.100;2024-03-29T04:50:30;8.20;99.90
55642;DHT22;41509;53.108;6.100;2024-03-29T04:52:58;8.20;99.90
55642;DHT22;41509;53.108;6.100;2024-03-29T04:55:23;8.30;99.90
55642;DHT22;41509;53.108;6.100;2024-03-29T04:57:49;8.30;99.90
55642;DHT22;41509;53.108;6.100;2024-03-29T05:00:15;8.30;99.90
55642;DHT22;41509;53.108;6.100;2024-03-29T05:02:40;8.30;99.90
55642;DHT22;41509;53.108;6.100;2024-03-29T05:05:06;8.30;99.90
55642;DHT22;41509;53.108;6.100;2024-03-29T05:07:32;8.30;99.90
55642;DHT22;41509;53.108;6.100;2024-03-29T05:09:57;8.30;99.90
55642;DHT22;41509;53.108;6.100;2024-03-29T05:12:23;8.40;99.90
55642;DHT22;41509;53.108;6.100;2024-03-29T05:14:51;8.40;99.90
55642;DHT22;41509;53.108;6.100;2024-03-29T05:17:17;8.40;99.90
55642;DHT22;41509;53.108;6.100;2024-03-29T05:19:45;8.40;99.90
55642;DHT22;41509;53.108;6.100;2024-03-29T05:22:11;8.40;99.90
55642;DHT22;41509;53.108;6.100;2024-03-29T05:24:36;8.40;99.90
55642;DHT22;41509;53.108;6.100;2024-03-29T05:27:02;8.50;99.90
55642;DHT22;41509;53.108;6.100;2024-03-29T05:29:31;8.50;99.90
55642;DHT22;41509;53.108;6.100;2024-03-29T05:31:59;8.50;99.90
55642;DHT22;41509;53.108;6.100;2024-03-29T05:34:25;8.50;99.90
55642;DHT22;41509;53.108;6.100;2024-03-29T05:36:50;8.60;99.90
55642;DHT22;41509;53.108;6.100;2024-03-29T05:39:16;8.60;99.90
55642;DHT22;41509;53.108;6.100;2024-03-29T05:41:44;8.60;99.90
55642;DHT22;41509;53.108;6.100;2024-03-29T05:44:09;8.60;99.90
55642;DHT22;41509;53.108;6.100;2024-03-29T05:46:35;8.60;99.90
55642;DHT22;41509;53.108;6.100;2024-03-29T05:49:01;8.60;99.90
55642;DHT22;41509;53.108;6.100;2024-03-29T05:51:29;8.60;99.90
55642;DHT22;41509;53.108;6.100;2024-03-29T05:53:54;8.60;99.90
55642;DHT22;41509;53.108;6.100;2024-03-29T05:56:21;8.70;99.90
55642;DHT22;41509;53.108;6.100;2024-03-29T05:58:47;8.70;99.90
55642;DHT22;41509;53.108;6.100;2024-03-29T06:01:13;8.70;99.90
55642;DHT22;41509;53.108;6.100;2024-03-29T06:03:39;8.70;99.90
55642;DHT22;41509;53.108;6.100;2024-03-29T06:06:07;8.70;99.90
55642;DHT22;41509;53.108;6.100;2024-03-29T06:08:33;8.70;99.90
55642;DHT22;41509;53.108;6.100;2024-03-29T06:10:58;8.60;99.90
55642;DHT22;41509;53.108;6.100;2024-03-29T06:13:24;8.70;99.90
55642;DHT22;41509;53.108;6.100;2024-03-29T06:16:08;8.70;99.90
55642;DHT22;41509;53.108;6.100;2024-03-29T06:18:53;8.70;99.90
55642;DHT22;41509;53.108;6.100;2024-03-29T06:21:18;8.60;99.90
55642;DHT22;41509;53.108;6.100;2024-03-29T06:23:46;8.60;99.90
55642;DHT22;41509;53.108;6.100;2024-03-29T06:26:12;8.60;99.90
55642;DHT22;41509;53.108;6.100;2024-03-29T06:28:37;8.60;99.90
55642;DHT22;41509;53.108;6.100;2024-03-29T06:31:03;8.70;99.90
55642;DHT22;41509;53.108;6.100;2024-03-29T06:33:29;8.60;99.90
55642;DHT22;41509;53.108;6.100;2024-03-29T06:35:55;8.70;99.90
55642;DHT22;41509;53.108;6.100;2024-03-29T06:38:21;8.70;99.90
55642;DHT22;41509;53.108;6.100;2024-03-29T06:40:46;8.70;99.90
55642;DHT22;41509;53.108;6.100;2024-03-29T06:43:12;8.70;99.90
55642;DHT22;41509;53.108;6.100;2024-03-29T06:45:41;8.80;99.90
55642;DHT22;41509;53.108;6.100;2024-03-29T06:48:12;8.80;99.90
55642;DHT22;41509;53.108;6.100;2024-03-29T06:50:38;8.80;99.90
55642;DHT22;41509;53.108;6.100;2024-03-29T06:53:04;8.90;99.90
55642;DHT22;41509;53.108;6.100;2024-03-29T06:55:30;8.90;99.90
55642;DHT22;41509;53.108;6.100;2024-03-29T06:57:56;9.00;99.90
55642;DHT22;41509;53.108;6.100;2024-03-29T07:00:22;9.00;99.90
55642;DHT22;41509;53.108;6.100;2024-03-29T07:02:47;9.10;99.90
55642;DHT22;41509;53.108;6.100;2024-03-29T07:05:13;9.10;99.90
55642;DHT22;41509;53.108;6.100;2024-03-29T07:07:38;9.20;99.90
55642;DHT22;41509;53.108;6.100;2024-03-29T07:10:07;9.20;99.90
55642;DHT22;41509;53.108;6.100;2024-03-29T07:12:33;9.20;99.90
55642;DHT22;41509;53.108;6.100;2024-03-29T07:14:58;9.30;99.90
55642;DHT22;41509;53.108;6.100;2024-03-29T07:17:26;9.30;99.90
55642;DHT22;41509;53.108;6.100;2024-03-29T07:19:51;9.30;99.90
55642;DHT22;41509;53.108;6.100;2024-03-29T07:22:17;9.30;99.90
55642;DHT22;41509;53.108;6.100;2024-03-29T07:24:43;9.40;99.90
55642;DHT22;41509;53.108;6.100;2024-03-29T07:27:08;9.40;99.90
55642;DHT22;41509;53.108;6.100;2024-03-29T07:29:34;9.50;99.90
55642;DHT22;41509;53.108;6.100;2024-03-29T07:32:03;9.50;99.90
55642;DHT22;41509;53.108;6.100;2024-03-29T07:34:28;9.50;99.90
55642;DHT22;41509;53.108;6.100;2024-03-29T07:36:56;9.60;99.90
55642;DHT22;41509;53.108;6.100;2024-03-29T07:39:22;9.50;99.90
55642;DHT22;41509;53.108;6.100;2024-03-29T07:41:48;9.60;99.90
55642;DHT22;41509;53.108;6.100;2024-03-29T07:44:14;9.60;99.90
55642;DHT22;41509;53.108;6.100;2024-03-29T07:46:39;9.60;99.90
55642;DHT22;41509;53.108;6.100;2024-03-29T07:49:05;9.70;99.90
55642;DHT22;41509;53.108;6.100;2024-03-29T07:51:31;9.70;99.90
55642;DHT22;41509;53.108;6.100;2024-03-29T07:53:57;9.80;99.90
55642;DHT22;41509;53.108;6.100;2024-03-29T07:56:23;9.80;99.90
55642;DHT22;41509;53.108;6.100;2024-03-29T07:58:53;9.90;99.90
55642;DHT22;41509;53.108;6.100;2024-03-29T08:01:23;9.90;99.90
55642;DHT22;41509;53.108;6.100;2024-03-29T08:03:52;10.00;99.90
55642;DHT22;41509;53.108;6.100;2024-03-29T08:06:21;10.10;99.90
55642;DHT22;41509;53.108;6.100;2024-03-29T08:08:49;10.20;99.90
55642;DHT22;41509;53.108;6.100;2024-03-29T08:11:15;10.30;99.90
55642;DHT22;41509;53.108;6.100;2024-03-29T08:13:41;10.40;99.90
55642;DHT22;41509;53.108;6.100;2024-03-29T08:16:07;10.50;99.90
55642;DHT22;41509;53.108;6.100;2024-03-29T08:18:32;10.60;99.90
55642;DHT22;41509;53.108;6.100;2024-03-29T08:21:02;10.60;99.90
55642;DHT22;41509;53.108;6.100;2024-03-29T08:23:28;10.50;99.90
55642;DHT22;41509;53.108;6.100;2024-03-29T08:25:53;10.50;99.90
55642;DHT22;41509;53.108;6.100;2024-03-29T08:28:24;10.40;99.90
55642;DHT22;41509;53.108;6.100;2024-03-29T08:31:01;10.40;99.90
55642;DHT22;41509;53.108;6.100;2024-03-29T08:33:27;10.40;99.90
55642;DHT22;41509;53.108;6.100;2024-03-29T08:35:52;10.40;99.90
55642;DHT22;41509;53.108;6.100;2024-03-29T08:38:18;10.30;99.90
55642;DHT22;41509;53.108;6.100;2024-03-29T08:40:44;10.30;99.90
55642;DHT22;41509;53.108;6.100;2024-03-29T08:43:12;10.40;99.90
55642;DHT22;41509;53.108;6.100;2024-03-29T08:45:37;10.30;99.90
55642;DHT22;41509;53.108;6.100;2024-03-29T08:48:07;10.30;99.90
55642;DHT22;41509;53.108;6.100;2024-03-29T08:50:34;10.30;99.90
55642;DHT22;41509;53.108;6.100;2024-03-29T08:53:00;10.30;99.90
55642;DHT22;41509;53.108;6.100;2024-03-29T08:55:25;10.40;99.90
55642;DHT22;41509;53.108;6.100;2024-03-29T08:57:51;10.40;99.90
55642;DHT22;41509;53.108;6.100;2024-03-29T09:00:17;10.50;99.90
55642;DHT22;41509;53.108;6.100;2024-03-29T09:02:43;10.60;99.90
55642;DHT22;41509;53.108;6.100;2024-03-29T09:05:08;10.60;99.90
55642;DHT22;41509;53.108;6.100;2024-03-29T09:07:34;10.80;99.90
55642;DHT22;41509;53.108;6.100;2024-03-29T09:09:59;10.80;99.90
55642;DHT22;41509;53.108;6.100;2024-03-29T09:12:25;10.80;99.90
55642;DHT22;41509;53.108;6.100;2024-03-29T09:14:51;10.90;99.90
55642;DHT22;41509;53.108;6.100;2024-03-29T09:17:18;11.00;99.90
55642;DHT22;41509;53.108;6.100;2024-03-29T09:19:44;11.00;99.90
55642;DHT22;41509;53.108;6.100;2024-03-29T09:22:10;11.10;99.90
55642;DHT22;41509;53.108;6.100;2024-03-29T09:24:35;11.20;99.90
55642;DHT22;41509;53.108;6.100;2024-03-29T09:27:01;11.20;99.90
55642;DHT22;41509;53.108;6.100;2024-03-29T09:29:27;11.30;99.90
55642;DHT22;41509;53.108;6.100;2024-03-29T09:31:52;11.30;99.90
55642;DHT22;41509;53.108;6.100;2024-03-29T09:34:18;11.30;99.90
55642;DHT22;41509;53.108;6.100;2024-03-29T09:36:43;11.30;99.90
55642;DHT22;41509;53.108;6.100;2024-03-29T09:39:09;11.30;99.90
55642;DHT22;41509;53.108;6.100;2024-03-29T09:41:35;11.20;99.90
55642;DHT22;41509;53.108;6.100;2024-03-29T09:44:03;11.10;99.90
55642;DHT22;41509;53.108;6.100;2024-03-29T09:46:32;11.00;99.90
55642;DHT22;41509;53.108;6.100;2024-03-29T09:48:59;11.00;99.90
55642;DHT22;41509;53.108;6.100;2024-03-29T09:51:25;11.10;99.90
55642;DHT22;41509;53.108;6.100;2024-03-29T09:53:51;11.20;99.90
55642;DHT22;41509;53.108;6.100;2024-03-29T09:56:17;11.30;99.90
55642;DHT22;41509;53.108;6.100;2024-03-29T09:58:42;11.40;99.90
55642;DHT22;41509;53.108;6.100;2024-03-29T10:01:08;11.30;99.90
55642;DHT22;41509;53.108;6.100;2024-03-29T10:03:40;11.30;99.90
55642;DHT22;41509;53.108;6.100;2024-03-29T10:06:05;11.40;99.90
55642;DHT22;41509;53.108;6.100;2024-03-29T10:08:34;11.50;99.90
55642;DHT22;41509;53.108;6.100;2024-03-29T10:11:01;11.60;99.90
55642;DHT22;41509;53.108;6.100;2024-03-29T10:13:26;11.80;99.90
55642;DHT22;41509;53.108;6.100;2024-03-29T10:15:53;11.90;99.90
55642;DHT22;41509;53.108;6.100;2024-03-29T10:18:25;12.00;99.90
55642;DHT22;41509;53.108;6.100;2024-03-29T10:21:05;12.10;99.90
55642;DHT22;41509;53.108;6.100;2024-03-29T10:23:31;12.00;99.90
55642;DHT22;41509;53.108;6.100;2024-03-29T10:25:57;12.00;99.90
55642;DHT22;41509;53.108;6.100;2024-03-29T10:28:27;12.10;99.90
55642;DHT22;41509;53.108;6.100;2024-03-29T10:30:55;12.10;99.90
55642;DHT22;41509;53.108;6.100;2024-03-29T10:33:21;12.20;99.90
55642;DHT22;41509;53.108;6.100;2024-03-29T10:35:46;12.10;99.90
55642;DHT22;41509;53.108;6.100;2024-03-29T10:38:12;12.10;99.90
55642;DHT22;41509;53.108;6.100;2024-03-29T10:40:39;12.10;99.90
55642;DHT22;41509;53.108;6.100;2024-03-29T10:43:08;12.20;99.90
55642;DHT22;41509;53.108;6.100;2024-03-29T10:45:38;12.30;99.90
55642;DHT22;41509;53.108;6.100;2024-03-29T10:48:04;12.40;99.90
55642;DHT22;41509;53.108;6.100;2024-03-29T10:50:38;12.50;99.90
55642;DHT22;41509;53.108;6.100;2024-03-29T10:53:06;12.60;99.90
55642;DHT22;41509;53.108;6.100;2024-03-29T10:55:36;12.70;99.90
55642;DHT22;41509;53.108;6.100;2024-03-29T10:58:03;12.70;99.90
55642;DHT22;41509;53.108;6.100;2024-03-29T11:00:32;12.80;99.90
55642;DHT22;41509;53.108;6.100;2024-03-29T11:03:20;12.90;99.90
55642;DHT22;41509;53.108;6.100;2024-03-29T11:05:50;13.00;99.90
55642;DHT22;41509;53.108;6.100;2024-03-29T11:08:23;13.10;99.90
55642;DHT22;41509;53.108;6.100;2024-03-29T11:10:51;13.00;99.90
55642;DHT22;41509;53.108;6.100;2024-03-29T11:16:01;13.00;99.90
55642;DHT22;41509;53.108;6.100;2024-03-29T11:18:28;13.00;99.90
55642;DHT22;41509;53.108;6.100;2024-03-29T11:20:56;13.20;99.90
55642;DHT22;41509;53.108;6.100;2024-03-29T11:23:22;13.30;99.90
55642;DHT22;41509;53.108;6.100;2024-03-29T11:25:52;13.30;99.90
55642;DHT22;41509;53.108;6.100;2024-03-29T11:28:32;13.30;99.90
55642;DHT22;41509;53.108;6.100;2024-03-29T11:31:07;13.30;99.90
55642;DHT22;41509;53.108;6.100;2024-03-29T11:33:44;13.40;99.90
55642;DHT22;41509;53.108;6.100;2024-03-29T11:36:25;13.50;99.90
55642;DHT22;41509;53.108;6.100;2024-03-29T11:38:55;13.60;99.90
55642;DHT22;41509;53.108;6.100;2024-03-29T11:41:26;13.70;99.90
55642;DHT22;41509;53.108;6.100;2024-03-29T11:43:56;13.80;99.90
55642;DHT22;41509;53.108;6.100;2024-03-29T11:46:23;13.90;99.90
55642;DHT22;41509;53.108;6.100;2024-03-29T11:48:49;14.00;99.90
55642;DHT22;41509;53.108;6.100;2024-03-29T11:51:18;14.00;99.90
55642;DHT22;41509;53.108;6.100;2024-03-29T11:53:47;14.00;99.90
55642;DHT22;41509;53.108;6.100;2024-03-29T11:56:13;14.10;99.90
55642;DHT22;41509;53.108;6.100;2024-03-29T11:58:40;14.20;99.90
55642;DHT22;41509;53.108;6.100;2024-03-29T12:01:06;14.40;99.90
55642;DHT22;41509;53.108;6.100;2024-03-29T12:03:38;14.40;99.90
55642;DHT22;41509;53.108;6.100;2024-03-29T12:06:04;14.40;99.90
55642;DHT22;41509;53.108;6.100;2024-03-29T12:08:33;14.50;99.90
55642;DHT22;41509;53.108;6.100;2024-03-29T12:10:59;14.60;99.90
55642;DHT22;41509;53.108;6.100;2024-03-29T12:13:25;14.70;99.90
55642;DHT22;41509;53.108;6.100;2024-03-29T12:15:51;14.70;99.90
55642;DHT22;41509;53.108;6.100;2024-03-29T12:18:19;14.60;99.90
55642;DHT22;41509;53.108;6.100;2024-03-29T12:20:47;14.50;99.90
55642;DHT22;41509;53.108;6.100;2024-03-29T12:23:19;14.40;99.90
55642;DHT22;41509;53.108;6.100;2024-03-29T12:25:45;14.30;99.90
55642;DHT22;41509;53.108;6.100;2024-03-29T12:28:12;14.40;99.90
55642;DHT22;41509;53.108;6.100;2024-03-29T12:30:41;14.50;99.90
55642;DHT22;41509;53.108;6.100;2024-03-29T12:33:09;14.50;99.90
55642;DHT22;41509;53.108;6.100;2024-03-29T12:35:36;14.50;99.90
55642;DHT22;41509;53.108;6.100;2024-03-29T12:38:04;14.40;99.90
55642;DHT22;41509;53.108;6.100;2024-03-29T12:40:31;14.40;99.90
55642;DHT22;41509;53.108;6.100;2024-03-29T12:43:04;14.30;99.90
55642;DHT22;41509;53.108;6.100;2024-03-29T12:45:31;14.20;99.90
55642;DHT22;41509;53.108;6.100;2024-03-29T12:47:57;14.20;99.90
55642;DHT22;41509;53.108;6.100;2024-03-29T12:52:54;14.20;99.90
55642;DHT22;41509;53.108;6.100;2024-03-29T12:55:20;14.30;99.90
55642;DHT22;41509;53.108;6.100;2024-03-29T12:57:46;14.40;99.90
55642;DHT22;41509;53.108;6.100;2024-03-29T13:00:12;14.50;99.90
55642;DHT22;41509;53.108;6.100;2024-03-29T13:02:38;14.50;99.90
55642;DHT22;41509;53.108;6.100;2024-03-29T13:05:04;14.50;99.90
55642;DHT22;41509;53.108;6.100;2024-03-29T13:07:31;14.50;99.90
55642;DHT22;41509;53.108;6.100;2024-03-29T13:09:57;14.50;99.90
55642;DHT22;41509;53.108;6.100;2024-03-29T13:12:25;14.50;99.90
55642;DHT22;41509;53.108;6.100;2024-03-29T13:14:51;14.50;99.90
55642;DHT22;41509;53.108;6.100;2024-03-29T13:17:17;14.40;99.90
55642;DHT22;41509;53.108;6.100;2024-03-29T13:19:43;14.30;99.90
55642;DHT22;41509;53.108;6.100;2024-03-29T13:22:09;14.20;99.90
55642;DHT22;41509;53.108;6.100;2024-03-29T13:24:34;14.10;99.90
55642;DHT22;41509;53.108;6.100;2024-03-29T13:27:00;14.00;99.90
55642;DHT22;41509;53.108;6.100;2024-03-29T13:29:26;14.00;99.90
55642;DHT22;41509;53.108;6.100;2024-03-29T13:31:52;13.90;99.90
55642;DHT22;41509;53.108;6.100;2024-03-29T13:34:17;13.70;99.90
55642;DHT22;41509;53.108;6.100;2024-03-29T13:36:43;13.70;99.90
55642;DHT22;41509;53.108;6.100;2024-03-29T13:39:11;13.70;99.90
55642;DHT22;41509;53.108;6.100;2024-03-29T13:41:39;13.50;99.90
55642;DHT22;41509;53.108;6.100;2024-03-29T13:44:06;13.60;99.90
55642;DHT22;41509;53.108;6.100;2024-03-29T13:46:35;13.60;99.90
55642;DHT22;41509;53.108;6.100;2024-03-29T13:49:02;13.60;99.90
55642;DHT22;41509;53.108;6.100;2024-03-29T13:51:29;13.70;99.90
55642;DHT22;41509;53.108;6.100;2024-03-29T13:53:54;13.70;99.90
55642;DHT22;41509;53.108;6.100;2024-03-29T13:56:21;13.80;99.90
55642;DHT22;41509;53.108;6.100;2024-03-29T13:58:46;13.90;99.90
55642;DHT22;41509;53.108;6.100;2024-03-29T14:01:12;14.10;99.90
55642;DHT22;41509;53.108;6.100;2024-03-29T14:03:38;14.10;99.90
55642;DHT22;41509;53.108;6.100;2024-03-29T14:06:04;14.20;99.90
55642;DHT22;41509;53.108;6.100;2024-03-29T14:08:31;14.20;99.90
55642;DHT22;41509;53.108;6.100;2024-03-29T14:10:57;14.30;99.90
55642;DHT22;41509;53.108;6.100;2024-03-29T14:13:23;14.30;99.90
55642;DHT22;41509;53.108;6.100;2024-03-29T14:15:49;14.30;99.90
55642;DHT22;41509;53.108;6.100;2024-03-29T14:18:15;14.40;99.90
55642;DHT22;41509;53.108;6.100;2024-03-29T14:20:40;14.40;99.90
55642;DHT22;41509;53.108;6.100;2024-03-29T14:23:06;14.50;99.90
55642;DHT22;41509;53.108;6.100;2024-03-29T14:25:35;14.60;99.90
55642;DHT22;41509;53.108;6.100;2024-03-29T14:28:02;14.70;99.90
55642;DHT22;41509;53.108;6.100;2024-03-29T14:30:29;14.80;99.90
55642;DHT22;41509;53.108;6.100;2024-03-29T14:32:57;14.90;99.90
55642;DHT22;41509;53.108;6.100;2024-03-29T14:35:27;15.10;99.90
55642;DHT22;41509;53.108;6.100;2024-03-29T14:37:54;15.20;99.90
55642;DHT22;41509;53.108;6.100;2024-03-29T14:40:21;15.30;99.90
55642;DHT22;41509;53.108;6.100;2024-03-29T14:42:46;15.30;99.90
55642;DHT22;41509;53.108;6.100;2024-03-29T14:45:12;15.20;99.90
55642;DHT22;41509;53.108;6.100;2024-03-29T14:47:38;15.10;99.90
55642;DHT22;41509;53.108;6.100;2024-03-29T14:50:04;15.00;99.90
55642;DHT22;41509;53.108;6.100;2024-03-29T14:52:34;14.90;99.90
55642;DHT22;41509;53.108;6.100;2024-03-29T14:55:00;14.90;99.90
55642;DHT22;41509;53.108;6.100;2024-03-29T14:57:26;14.90;99.90
55642;DHT22;41509;53.108;6.100;2024-03-29T14:59:51;14.90;99.90
55642;DHT22;41509;53.108;6.100;2024-03-29T15:02:17;14.90;99.90
55642;DHT22;41509;53.108;6.100;2024-03-29T15:04:43;14.90;99.90
55642;DHT22;41509;53.108;6.100;2024-03-29T15:07:09;15.10;99.90
55642;DHT22;41509;53.108;6.100;2024-03-29T15:09:34;15.10;99.90
55642;DHT22;41509;53.108;6.100;2024-03-29T15:12:03;15.20;99.90
55642;DHT22;41509;53.108;6.100;2024-03-29T15:14:32;15.20;99.90
55642;DHT22;41509;53.108;6.100;2024-03-29T15:16:58;15.00;99.90
55642;DHT22;41509;53.108;6.100;2024-03-29T15:19:23;14.90;99.90
55642;DHT22;41509;53.108;6.100;2024-03-29T15:21:49;15.00;99.90
55642;DHT22;41509;53.108;6.100;2024-03-29T15:24:15;15.00;99.90
55642;DHT22;41509;53.108;6.100;2024-03-29T15:26:41;15.00;99.90
55642;DHT22;41509;53.108;6.100;2024-03-29T15:29:07;15.00;99.90
55642;DHT22;41509;53.108;6.100;2024-03-29T15:31:37;15.00;99.90
55642;DHT22;41509;53.108;6.100;2024-03-29T15:34:04;15.00;99.90
55642;DHT22;41509;53.108;6.100;2024-03-29T15:36:30;14.90;99.90
55642;DHT22;41509;53.108;6.100;2024-03-29T15:38:56;14.90;99.90
55642;DHT22;41509;53.108;6.100;2024-03-29T15:41:27;14.90;99.90